VALOR01 EGUL-EGUL

Flight info

Callsign VALOR01
Flight time 0h 31m
Altitude 12000
Route EGUL/HOLBEACH/EGUL
Aircraft F35/M-VGDW/C

Departure

Time 2026-04-24 19:14
Airport RAF Lakenheath (EGUL)

Arrival

Time 2026-04-24 19:46
Airport RAF Lakenheath (EGUL)
Time Latitude Longitude Altitude Speed Heading
2026-04-24 19:07 52.40134 0.56794 44 ft 0 kts 352°
2026-04-24 19:08 52.40153 0.56782 43 ft 7 kts 318°
2026-04-24 19:08 52.40145 0.56669 43 ft 16 kts 258°
2026-04-24 19:08 52.40124 0.56426 43 ft 25 kts 253°
2026-04-24 19:08 52.40090 0.56062 41 ft 42 kts 260°
2026-04-24 19:09 52.40045 0.55621 38 ft 33 kts 263°
2026-04-24 19:09 52.40013 0.55245 35 ft 33 kts 265°
2026-04-24 19:09 52.40081 0.54918 34 ft 30 kts 297°
2026-04-24 19:09 52.40161 0.54737 34 ft 8 kts 14°
2026-04-24 19:10 52.40170 0.54742 34 ft 0 kts 16°
2026-04-24 19:10 52.40177 0.54745 35 ft 4 kts 16°
2026-04-24 19:10 52.40216 0.54694 35 ft 15 kts 298°
2026-04-24 19:11 52.40193 0.54579 33 ft 8 kts 275°
2026-04-24 19:11 52.40200 0.54554 32 ft 0 kts 299°
2026-04-24 19:13 52.40203 0.54546 32 ft 5 kts 298°
2026-04-24 19:13 52.40266 0.54492 30 ft 7 kts 30°
2026-04-24 19:13 52.40284 0.54528 31 ft 0 kts 56°
2026-04-24 19:14 52.40374 0.54743 32 ft 113 kts 56°
2026-04-24 19:14 52.41295 0.56961 54 ft 353 kts 57°
2026-04-24 19:14 52.42416 0.59984 4602 ft 182 kts 76°
2026-04-24 19:15 52.42728 0.62485 12754 ft 316 kts 77°
2026-04-24 19:15 52.44226 0.66669 14895 ft 512 kts 39°
2026-04-24 19:15 52.47989 0.67660 13609 ft 604 kts 336°
2026-04-24 19:15 52.51407 0.63749 13094 ft 613 kts 322°
2026-04-24 19:16 52.58245 0.55223 11262 ft 619 kts 321°
2026-04-24 19:16 52.61336 0.51254 11337 ft 521 kts 321°
2026-04-24 19:16 52.64110 0.47927 11070 ft 469 kts 330°
2026-04-24 19:17 52.67092 0.46222 10348 ft 440 kts 347°
2026-04-24 19:17 52.70034 0.45260 9859 ft 428 kts 348°
2026-04-24 19:17 52.73109 0.44277 9614 ft 474 kts 348°
2026-04-24 19:17 52.76489 0.43191 9330 ft 514 kts 348°
2026-04-24 19:18 52.80091 0.41929 8963 ft 541 kts 346°
2026-04-24 19:18 52.83783 0.40252 8474 ft 558 kts 343°
2026-04-24 19:18 52.87455 0.37965 7847 ft 566 kts 325°
2026-04-24 19:18 52.88087 0.32458 4780 ft 581 kts 249°
2026-04-24 19:19 52.87281 0.25906 3578 ft 588 kts 261°
2026-04-24 19:19 52.86849 0.19485 1416 ft 517 kts 266°
2026-04-24 19:19 52.87382 0.14585 1925 ft 376 kts 324°
2026-04-24 19:19 52.89397 0.12524 2912 ft 308 kts 333°
2026-04-24 19:20 52.91161 0.11170 3544 ft 253 kts 338°
2026-04-24 19:20 52.92364 0.11400 3519 ft 180 kts 73°
2026-04-24 19:20 52.92511 0.14684 3015 ft 400 kts 87°
2026-04-24 19:20 52.92650 0.20303 2993 ft 546 kts 87°
2026-04-24 19:21 52.92475 0.26867 4986 ft 585 kts 121°
2026-04-24 19:21 52.88803 0.29692 6493 ft 584 kts 178°
2026-04-24 19:21 52.87082 0.25523 7286 ft 506 kts 264°
2026-04-24 19:21 52.86653 0.19531 6205 ft 526 kts 266°
2026-04-24 19:22 52.86751 0.15573 5466 ft 516 kts 284°
2026-04-24 19:22 52.90069 0.11749 6415 ft 442 kts 343°
2026-04-24 19:22 52.92429 0.13320 6073 ft 405 kts 85°
2026-04-24 19:22 52.92557 0.18010 6115 ft 415 kts 84°
2026-04-24 19:23 52.92690 0.22905 5793 ft 432 kts 99°
2026-04-24 19:23 52.90603 0.25732 5222 ft 427 kts 170°
2026-04-24 19:23 52.87605 0.25984 4885 ft 439 kts 181°
2026-04-24 19:23 52.86035 0.22961 4376 ft 399 kts 281°
2026-04-24 19:24 52.86609 0.18152 3325 ft 442 kts 282°
2026-04-24 19:24 52.88432 0.14751 3111 ft 421 kts 351°
2026-04-24 19:24 52.91367 0.13999 3046 ft 432 kts 352°
2026-04-24 19:24 52.94332 0.13705 3160 ft 406 kts 34°
2026-04-24 19:25 52.94809 0.17799 3271 ft 387 kts 91°
2026-04-24 19:25 52.94703 0.22389 3152 ft 411 kts 92°
2026-04-24 19:25 52.92838 0.24812 3323 ft 384 kts 168°
2026-04-24 19:25 52.90104 0.25641 3087 ft 413 kts 169°
2026-04-24 19:26 52.87238 0.26039 3051 ft 412 kts 208°
2026-04-24 19:26 52.86519 0.22028 2727 ft 402 kts 275°
2026-04-24 19:26 52.86754 0.17249 2469 ft 428 kts 272°
2026-04-24 19:26 52.88367 0.13895 2236 ft 386 kts 351°
2026-04-24 19:27 52.91078 0.13055 2512 ft 400 kts 348°
2026-04-24 19:27 52.93433 0.13988 3319 ft 358 kts 68°
2026-04-24 19:27 52.93446 0.18110 3340 ft 374 kts 94°
2026-04-24 19:27 52.93253 0.22592 3078 ft 404 kts 93°
2026-04-24 19:28 52.91806 0.25647 3010 ft 377 kts 170°
2026-04-24 19:28 52.89096 0.26342 2801 ft 408 kts 171°
2026-04-24 19:28 52.86787 0.25126 2792 ft 419 kts 265°
2026-04-24 19:28 52.86756 0.19400 2858 ft 538 kts 269°
2026-04-24 19:29 52.90330 0.14117 3167 ft 413 kts 351°
2026-04-24 19:29 52.93091 0.14629 3685 ft 423 kts 59°
2026-04-24 19:29 52.93255 0.19589 3600 ft 463 kts 88°
2026-04-24 19:30 52.92931 0.25020 3457 ft 478 kts 129°
2026-04-24 19:30 52.89854 0.26504 3707 ft 487 kts 169°
2026-04-24 19:30 52.86439 0.26289 3518 ft 513 kts 210°
2026-04-24 19:30 52.85964 0.21038 1927 ft 528 kts 285°
2026-04-24 19:31 52.87207 0.15199 1828 ft 537 kts 309°
2026-04-24 19:31 52.90453 0.13375 3764 ft 501 kts 351°
2026-04-24 19:31 52.93835 0.14156 3540 ft 512 kts 46°
2026-04-24 19:31 52.94635 0.19729 3026 ft 529 kts 90°
2026-04-24 19:32 52.93567 0.25337 2640 ft 526 kts 155°
2026-04-24 19:32 52.89921 0.26526 2113 ft 545 kts 171°
2026-04-24 19:32 52.86325 0.25970 2401 ft 527 kts 230°
2026-04-24 19:32 52.86257 0.20205 1833 ft 539 kts 284°
2026-04-24 19:33 52.87596 0.14437 2368 ft 515 kts 322°
2026-04-24 19:33 52.90997 0.13123 5526 ft 510 kts 352°
2026-04-24 19:33 52.93941 0.14043 5706 ft 428 kts 76°
2026-04-24 19:33 52.93862 0.18972 5429 ft 440 kts 94°
2026-04-24 19:34 52.93491 0.24111 4974 ft 447 kts 114°
2026-04-24 19:34 52.90954 0.26708 2902 ft 463 kts 160°
2026-04-24 19:34 52.87920 0.28147 3010 ft 423 kts 200°
2026-04-24 19:34 52.87037 0.23038 3597 ft 574 kts 266°
2026-04-24 19:35 52.86919 0.16618 3649 ft 545 kts 285°
2026-04-24 19:35 52.90185 0.13832 5592 ft 604 kts 353°
2026-04-24 19:35 52.94319 0.14350 7204 ft 613 kts 33°
2026-04-24 19:35 52.95751 0.20707 7332 ft 631 kts 89°
2026-04-24 19:36 52.94215 0.26501 7606 ft 616 kts 159°
2026-04-24 19:36 52.90047 0.28658 6436 ft 632 kts 163°
2026-04-24 19:36 52.86939 0.25952 936 ft 609 kts 257°
2026-04-24 19:36 52.86489 0.20539 3610 ft 462 kts 277°
2026-04-24 19:37 52.87165 0.14868 1466 ft 514 kts 313°
2026-04-24 19:37 52.89907 0.16161 7020 ft 555 kts 82°
2026-04-24 19:37 52.89355 0.22966 8651 ft 628 kts 102°
2026-04-24 19:37 52.88307 0.30018 9344 ft 629 kts 104°
2026-04-24 19:38 52.87507 0.34626 9769 ft 631 kts 107°
2026-04-24 19:38 52.84905 0.40052 9774 ft 630 kts 165°
2026-04-24 19:38 52.80574 0.41163 9697 ft 632 kts 174°
2026-04-24 19:38 52.76179 0.41985 8913 ft 637 kts 174°
2026-04-24 19:39 52.71761 0.42802 7862 ft 641 kts 174°
2026-04-24 19:39 52.67519 0.43529 6863 ft 562 kts 174°
2026-04-24 19:39 52.63875 0.44014 6119 ft 493 kts 174°
2026-04-24 19:39 52.60593 0.44467 5389 ft 459 kts 172°
2026-04-24 19:40 52.57483 0.45206 4678 ft 443 kts 171°
2026-04-24 19:40 52.54557 0.45946 4344 ft 404 kts 171°
2026-04-24 19:40 52.51918 0.46620 4017 ft 360 kts 170°
2026-04-24 19:40 52.49675 0.47193 3642 ft 310 kts 170°
2026-04-24 19:41 52.47571 0.48623 3672 ft 354 kts 131°
2026-04-24 19:41 52.45978 0.51415 3385 ft 385 kts 161°
2026-04-24 19:41 52.43728 0.52562 2190 ft 249 kts 156°
2026-04-24 19:41 52.42345 0.53763 1766 ft 216 kts 149°
2026-04-24 19:42 52.41097 0.54931 1508 ft 198 kts 148°
2026-04-24 19:42 52.39984 0.55978 1273 ft 181 kts 147°
2026-04-24 19:42 52.38581 0.55406 1018 ft 292 kts 242°
2026-04-24 19:42 52.37751 0.52537 1112 ft 258 kts 276°
2026-04-24 19:43 52.38864 0.51832 594 ft 213 kts 34°
2026-04-24 19:43 52.39744 0.53298 192 ft 147 kts 57°
2026-04-24 19:43 52.40505 0.55137 176 ft 297 kts 58°
2026-04-24 19:43 52.40210 0.57914 1191 ft 354 kts 141°
2026-04-24 19:44 52.38558 0.55952 1192 ft 371 kts 249°
2026-04-24 19:44 52.37614 0.52415 1500 ft 300 kts 265°
2026-04-24 19:44 52.38681 0.50871 818 ft 187 kts 44°
2026-04-24 19:44 52.39415 0.52470 402 ft 164 kts 56°
2026-04-24 19:45 52.40018 0.53895 92 ft 137 kts 58°
2026-04-24 19:45 52.40505 0.55064 35 ft 108 kts 55°
2026-04-24 19:45 52.40857 0.55898 38 ft 80 kts 55°
2026-04-24 19:45 52.41144 0.56604 39 ft 69 kts 57°
2026-04-24 19:46 52.41385 0.57164 38 ft 51 kts 57°
2026-04-24 19:46 52.41563 0.57595 38 ft 40 kts 55°
2026-04-24 19:46 52.41574 0.57804 38 ft 17 kts 153°
2026-04-24 19:46 52.41452 0.57795 37 ft 18 kts 194°
2026-04-24 19:47 52.41334 0.57744 39 ft 17 kts 194°
2026-04-24 19:47 52.41226 0.57700 44 ft 15 kts 193°
2026-04-24 19:47 52.41141 0.57651 47 ft 9 kts 210°
2026-04-24 19:47 52.41064 0.57624 49 ft 19 kts 201°
2026-04-24 19:48 52.40908 0.57561 50 ft 20 kts 198°
2026-04-24 19:48 52.40768 0.57493 48 ft 23 kts 194°
2026-04-24 19:48 52.40445 0.57354 50 ft 27 kts 194°
2026-04-24 19:49 52.40176 0.57050 45 ft 10 kts 211°
2026-04-24 19:49 52.40135 0.56918 44 ft 4 kts 346°
2026-04-24 19:50 52.40144 0.56916 44 ft 0 kts 352°